Time;durP1;ratioP1;P1;durP2;ratioP2;P2;SDS_P1;SDS_P2;PMS_P1;PMS_P2;Temp;Humidity;BMP_temperature;BMP_pressure;BME280_temperature;BME280_humidity;BME280_pressure;Samples;Min_cycle;Max_cycle;Signal;HPM_P1;HPM_P2
2021/06/16 00:01:29;;;;;;;4.68;2.85;;;;;;;16.94;78.18;96685.28;5027055;28;20084;-67
2021/06/16 00:03:54;;;;;;;5.30;2.80;;;;;;;16.86;77.23;96697.59;5026225;28;20494;-66
2021/06/16 00:06:20;;;;;;;10.75;3.47;;;;;;;16.84;77.85;96694.47;5021692;28;20092;-67
2021/06/16 00:08:45;;;;;;;5.53;2.53;;;;;;;16.81;78.30;96689.69;5027008;28;20406;-67
2021/06/16 00:11:10;;;;;;;9.65;3.05;;;;;;;16.75;78.35;96683.06;5019708;28;20038;-68
2021/06/16 00:13:36;;;;;;;5.82;2.90;;;;;;;16.74;78.11;96685.00;5027265;28;20076;-66
2021/06/16 00:16:01;;;;;;;7.05;3.05;;;;;;;16.76;77.28;96690.94;5026606;28;20387;-68
2021/06/16 00:18:27;;;;;;;5.43;3.03;;;;;;;16.75;78.23;96685.81;5004064;28;20599;-68
2021/06/16 00:20:52;;;;;;;8.75;3.10;;;;;;;16.82;78.01;96694.06;5025929;28;20045;-68
2021/06/16 00:23:17;;;;;;;7.18;3.28;;;;;;;16.80;77.48;96686.16;5021532;28;20046;-68
2021/06/16 00:25:43;;;;;;;6.45;2.58;;;;;;;16.85;76.94;96689.69;5024540;28;20056;-67
2021/06/16 00:28:08;;;;;;;7.40;2.70;;;;;;;16.93;76.42;96688.47;5008055;28;20037;-69
2021/06/16 00:30:34;;;;;;;5.05;2.80;;;;;;;16.87;76.03;96695.59;5040314;28;20053;-69
2021/06/16 00:32:59;;;;;;;6.15;2.90;;;;;;;16.81;76.42;96684.16;5033183;28;20762;-67
2021/06/16 00:35:25;;;;;;;3.88;2.58;;;;;;;16.78;76.83;96688.56;5022173;28;20171;-67
2021/06/16 00:37:53;;;;;;;4.88;2.78;;;;;;;16.85;76.95;96684.16;5025304;28;20460;-68
2021/06/16 00:40:23;;;;;;;6.75;2.67;;;;;;;16.84;76.53;96691.69;5020245;28;20045;-68
2021/06/16 00:42:49;;;;;;;8.35;2.60;;;;;;;16.71;77.01;96687.81;5009190;28;20136;-67
2021/06/16 00:45:17;;;;;;;4.85;2.70;;;;;;;16.74;77.29;96693.31;5003920;28;20069;-66
2021/06/16 00:47:42;;;;;;;3.70;2.80;;;;;;;16.70;77.27;96689.00;5026943;28;20465;-67
2021/06/16 00:50:10;;;;;;;10.13;3.90;;;;;;;16.74;77.53;96696.06;5004486;28;20054;-67
2021/06/16 00:52:36;;;;;;;5.75;3.17;;;;;;;16.73;77.64;96694.50;5004536;28;20044;-68
2021/06/16 00:55:03;;;;;;;5.32;2.88;;;;;;;16.69;77.72;96691.00;5026399;28;20049;-67
2021/06/16 00:57:28;;;;;;;7.28;2.85;;;;;;;16.62;77.78;96688.28;5023591;28;20518;-67
2021/06/16 01:00:02;;;;;;;5.50;2.80;;;;;;;16.65;77.47;96687.44;5026379;28;20053;-67
2021/06/16 01:02:31;;;;;;;6.55;3.00;;;;;;;16.72;77.05;96690.16;5022311;28;20041;-69
2021/06/16 01:04:57;;;;;;;;;;;;;;;16.64;77.09;96688.66;5022968;28;20144;-66
2021/06/16 01:07:26;;;;;;;5.90;2.60;;;;;;;16.60;77.02;96694.22;5029269;28;19921;-66
2021/06/16 01:10:04;;;;;;;5.68;2.28;;;;;;;16.47;77.06;96693.13;5023744;28;20064;-65
2021/06/16 01:12:48;;;;;;;3.50;2.60;;;;;;;16.47;77.25;96692.34;5027824;28;20045;-66
2021/06/16 01:15:19;;;;;;;6.47;2.60;;;;;;;16.43;77.37;96690.38;5011559;28;20041;-65
2021/06/16 01:17:49;;;;;;;3.72;2.45;;;;;;;16.38;77.07;96695.56;5006239;28;20128;-65
2021/06/16 01:20:33;;;;;;;4.60;2.60;;;;;;;16.37;76.91;96688.47;5018125;28;20984;-64
2021/06/16 01:22:58;;;;;;;5.25;2.75;;;;;;;16.54;75.99;96695.06;5022862;28;20053;-65
2021/06/16 01:26:14;;;;;;;7.13;3.43;;;;;;;16.53;75.85;96696.22;5033871;28;20042;-66
2021/06/16 01:28:44;;;;;;;7.03;2.30;;;;;;;16.54;75.28;96697.81;5013463;28;20280;-65
2021/06/16 01:31:12;;;;;;;;;;;;;;;16.50;75.01;96697.06;5023342;28;20045;-65
2021/06/16 01:33:38;;;;;;;6.88;2.60;;;;;;;16.54;75.39;96695.84;5018173;28;20328;-67
2021/06/16 01:36:05;;;;;;;4.43;2.90;;;;;;;16.47;75.30;96700.63;5015214;28;20056;-64
2021/06/16 01:38:31;;;;;;;7.10;3.17;;;;;;;16.42;76.38;96697.13;5020724;28;20049;-65
2021/06/16 01:41:00;;;;;;;5.60;2.80;;;;;;;16.41;76.36;96697.50;5022490;28;20571;-64
2021/06/16 01:43:26;;;;;;;6.22;3.13;;;;;;;16.42;76.60;96702.63;5000171;28;20051;-66
2021/06/16 01:45:53;;;;;;;3.70;2.63;;;;;;;16.38;77.04;96707.38;5022424;28;20388;-67
2021/06/16 01:48:20;;;;;;;7.18;2.78;;;;;;;16.35;76.85;96702.69;5017835;28;20042;-64
2021/06/16 01:50:50;;;;;;;7.47;2.72;;;;;;;16.34;77.22;96701.09;5021546;28;20045;-64
2021/06/16 01:53:16;;;;;;;4.45;2.95;;;;;;;16.34;77.25;96698.34;5014913;28;20049;-64
2021/06/16 01:55:41;;;;;;;4.72;2.88;;;;;;;16.35;76.84;96694.41;5023382;28;20096;-64
2021/06/16 01:58:08;;;;;;;4.32;2.78;;;;;;;16.36;76.94;96686.88;5016546;28;20132;-66
2021/06/16 02:00:37;;;;;;;4.97;2.88;;;;;;;16.36;76.85;96692.41;5022040;28;20053;-64
2021/06/16 02:03:03;;;;;;;6.55;3.20;;;;;;;16.39;76.57;96688.84;5018134;28;20128;-66
2021/06/16 02:05:29;;;;;;;4.68;2.67;;;;;;;16.32;76.70;96689.66;5020929;28;20095;-65
2021/06/16 02:08:04;;;;;;;5.93;2.65;;;;;;;16.28;76.95;96690.88;5021743;28;20190;-65
2021/06/16 02:10:33;;;;;;;6.03;2.97;;;;;;;16.20;77.38;96693.69;5019231;28;20104;-64
2021/06/16 02:13:01;;;;;;;10.73;3.25;;;;;;;16.14;77.52;96692.53;5022053;28;20472;-64
2021/06/16 02:15:36;;;;;;;5.03;3.15;;;;;;;16.16;77.67;96692.91;5015534;28;20041;-65
2021/06/16 02:18:04;;;;;;;5.22;3.20;;;;;;;16.10;77.99;96686.25;5017210;28;20061;-64
2021/06/16 02:20:30;;;;;;;5.50;3.15;;;;;;;16.07;78.23;96686.28;5017706;28;20144;-65
2021/06/16 02:22:56;;;;;;;5.43;3.03;;;;;;;15.85;78.78;96686.38;5019067;28;20129;-65
2021/06/16 02:25:22;;;;;;;5.30;3.13;;;;;;;15.81;79.32;96686.41;5016489;28;20363;-65
2021/06/16 02:27:48;;;;;;;9.25;3.20;;;;;;;15.75;79.71;96684.44;5022516;28;20120;-65
2021/06/16 02:30:15;;;;;;;6.43;3.08;;;;;;;15.61;79.86;96677.78;5015722;28;20140;-67
2021/06/16 02:32:41;;;;;;;6.57;2.97;;;;;;;15.54;80.62;96682.53;5020924;28;20095;-63
2021/06/16 02:35:07;;;;;;;5.50;2.65;;;;;;;15.53;80.83;96686.47;5014803;28;20045;-64
2021/06/16 02:37:37;;;;;;;9.68;2.70;;;;;;;15.54;81.02;96680.56;5019657;28;20124;-63
2021/06/16 02:40:07;;;;;;;9.45;4.15;;;;;;;15.56;81.21;96675.44;5021581;28;20137;-64
2021/06/16 02:42:34;;;;;;;4.78;2.95;;;;;;;15.61;81.24;96675.03;5034800;28;20504;-65
2021/06/16 02:45:01;;;;;;;7.35;3.20;;;;;;;15.65;80.76;96675.78;4995511;28;20099;-66
2021/06/16 02:47:28;;;;;;;7.20;3.95;;;;;;;15.54;81.13;96674.25;5000625;28;20042;-66
2021/06/16 02:49:55;;;;;;;6.45;3.65;;;;;;;15.44;81.65;96670.34;5021630;28;20080;-67
2021/06/16 02:52:22;;;;;;;6.28;3.63;;;;;;;15.33;81.99;96667.63;5019840;28;20041;-65
2021/06/16 02:54:55;;;;;;;6.55;2.83;;;;;;;15.14;82.08;96673.56;5032419;28;20109;-64
2021/06/16 02:57:22;;;;;;;6.00;3.25;;;;;;;15.17;82.84;96676.31;5022967;28;20048;-64
2021/06/16 02:59:50;;;;;;;5.18;3.42;;;;;;;15.15;82.49;96675.94;5020278;28;20140;-65
2021/06/16 03:02:19;;;;;;;6.43;2.97;;;;;;;15.16;82.19;96683.03;5028684;28;20050;-65
2021/06/16 03:04:46;;;;;;;8.90;3.42;;;;;;;15.12;82.63;96684.22;5016126;28;20041;-65
2021/06/16 03:07:13;;;;;;;9.07;3.65;;;;;;;15.20;83.05;96683.81;5018942;28;20037;-64
2021/06/16 03:09:39;;;;;;;5.22;3.03;;;;;;;15.29;82.30;96683.41;5003159;28;21083;-65
2021/06/16 03:12:06;;;;;;;5.75;2.95;;;;;;;15.37;81.72;96673.13;5018494;28;20105;-65
2021/06/16 03:14:32;;;;;;;4.05;2.88;;;;;;;15.41;81.42;96671.94;5020560;28;20045;-65
2021/06/16 03:17:00;;;;;;;6.03;3.00;;;;;;;15.37;81.38;96681.41;5021938;28;20034;-65
2021/06/16 03:19:26;;;;;;;5.05;3.25;;;;;;;15.28;80.90;96679.06;5010877;28;20394;-65
2021/06/16 03:21:54;;;;;;;7.95;3.03;;;;;;;15.24;81.47;96681.81;5021398;28;20041;-64
2021/06/16 03:24:22;;;;;;;6.00;3.03;;;;;;;15.33;81.21;96680.63;5015056;28;20095;-64
2021/06/16 03:26:49;;;;;;;10.07;3.20;;;;;;;15.27;81.33;96677.50;5021324;28;20512;-62
2021/06/16 03:29:16;;;;;;;5.50;3.30;;;;;;;15.27;81.53;96680.25;5015898;28;20049;-62
2021/06/16 03:31:43;;;;;;;5.18;3.42;;;;;;;15.19;81.45;96684.97;5020618;28;20048;-65
2021/06/16 03:34:09;;;;;;;6.63;3.08;;;;;;;15.17;81.29;96676.31;5013006;28;20619;-63
2021/06/16 03:36:39;;;;;;;6.10;3.45;;;;;;;15.18;81.57;96688.94;5002506;28;20061;-66
2021/06/16 03:39:06;;;;;;;10.52;3.78;;;;;;;15.22;81.33;96686.94;5011139;28;20056;-63
2021/06/16 03:41:32;;;;;;;6.80;3.25;;;;;;;15.29;81.01;96686.16;5021226;28;20038;-66
2021/06/16 03:44:00;;;;;;;6.88;3.55;;;;;;;15.38;80.09;96694.81;5001322;28;20134;-66
2021/06/16 03:46:26;;;;;;;6.43;3.45;;;;;;;15.49;79.84;96690.03;5016097;28;20037;-66
2021/06/16 03:48:53;;;;;;;7.00;3.40;;;;;;;15.49;78.94;96686.50;5019617;28;20486;-66
2021/06/16 03:51:19;;;;;;;5.38;2.67;;;;;;;15.48;79.08;96684.91;5016701;28;20065;-66
2021/06/16 03:53:45;;;;;;;4.88;2.78;;;;;;;15.60;79.13;96686.47;5016156;28;20455;-65
2021/06/16 03:56:12;;;;;;;4.80;2.88;;;;;;;15.66;78.25;96693.13;5016792;28;20080;-66
2021/06/16 03:58:40;;;;;;;4.53;2.92;;;;;;;15.78;78.35;96691.94;5028680;28;20080;-65
2021/06/16 04:01:09;;;;;;;6.10;3.17;;;;;;;15.84;77.19;96698.59;5026560;28;20124;-65
2021/06/16 04:03:35;;;;;;;6.45;2.92;;;;;;;15.90;77.55;96696.22;5023697;28;20440;-65
2021/06/16 04:06:01;;;;;;;6.65;2.60;;;;;;;16.04;77.01;96693.38;5022460;28;20132;-65
2021/06/16 04:08:27;;;;;;;6.63;2.70;;;;;;;16.12;76.20;96694.94;5016581;28;20139;-66
2021/06/16 04:10:53;;;;;;;10.15;2.92;;;;;;;16.25;75.48;96698.78;5012008;28;20046;-66
2021/06/16 04:13:19;;;;;;;8.35;2.58;;;;;;;16.48;74.68;96688.41;5005569;28;20417;-66
2021/06/16 04:15:44;;;;;;;6.45;3.25;;;;;;;16.58;73.84;96681.97;5020260;28;20095;-65
2021/06/16 04:18:10;;;;;;;4.22;3.10;;;;;;;16.79;73.36;96690.09;5013405;28;20037;-65
2021/06/16 04:20:36;;;;;;;4.18;2.45;;;;;;;16.05;76.29;96689.44;5019453;28;20153;-66
2021/06/16 04:23:01;;;;;;;4.07;2.78;;;;;;;16.07;76.90;96694.56;5020464;28;20051;-66
2021/06/16 04:25:27;;;;;;;7.68;3.30;;;;;;;15.96;77.33;96698.16;5017158;28;20041;-65
2021/06/16 04:27:53;;;;;;;5.82;3.22;;;;;;;16.32;75.92;96692.44;5021325;28;20477;-64
2021/06/16 04:30:21;;;;;;;3.78;2.78;;;;;;;16.69;74.32;96691.00;5014433;28;20053;-65
2021/06/16 04:32:47;;;;;;;5.80;2.88;;;;;;;17.06;72.52;96688.72;5020692;28;20049;-65
2021/06/16 04:35:12;;;;;;;5.60;3.00;;;;;;;17.35;71.71;96684.47;5019348;28;20441;-66
2021/06/16 04:37:38;;;;;;;5.00;2.78;;;;;;;17.62;70.21;96694.09;4981082;28;20049;-66
2021/06/16 04:40:06;;;;;;;7.90;3.20;;;;;;;17.27;71.26;96687.72;5030697;28;20095;-66
2021/06/16 04:42:32;;;;;;;4.15;2.65;;;;;;;17.88;69.26;96679.53;5032553;28;20045;-64
2021/06/16 04:44:58;;;;;;;4.82;3.40;;;;;;;18.32;67.55;96685.28;5016627;28;20129;-63
2021/06/16 04:47:23;;;;;;;5.55;2.50;;;;;;;18.78;66.49;96683.00;5001098;28;20597;-66
2021/06/16 04:49:49;;;;;;;5.65;2.95;;;;;;;19.42;64.13;96686.66;5024901;28;20081;-65
2021/06/16 04:52:14;;;;;;;4.13;2.60;;;;;;;20.07;61.37;96682.63;5015564;28;20810;-65
2021/06/16 04:54:40;;;;;;;8.25;2.65;;;;;;;20.71;58.88;96680.41;5020736;28;20137;-65
2021/06/16 04:57:06;;;;;;;4.47;2.30;;;;;;;21.49;57.29;96674.84;5019626;28;20037;-64
2021/06/16 04:59:32;;;;;;;4.00;2.60;;;;;;;21.65;55.33;96676.03;5004872;28;20407;-64
2021/06/16 05:01:59;;;;;;;10.68;2.53;;;;;;;22.20;53.98;96676.81;5023692;28;20042;-64
2021/06/16 05:04:25;;;;;;;6.85;2.53;;;;;;;23.07;52.07;96677.72;5015530;28;20857;-66
2021/06/16 05:06:50;;;;;;;6.43;2.33;;;;;;;23.93;49.32;96679.50;5023569;28;20069;-66
2021/06/16 05:09:16;;;;;;;10.27;2.47;;;;;;;24.71;46.39;96678.53;5016340;28;20049;-66
2021/06/16 05:11:41;;;;;;;7.03;2.47;;;;;;;25.03;45.34;96670.03;5024441;28;20033;-66
2021/06/16 05:14:07;;;;;;;4.63;2.50;;;;;;;25.60;43.56;96673.22;5017707;28;20042;-66
2021/06/16 05:16:32;;;;;;;5.63;2.40;;;;;;;26.29;42.67;96673.78;5010321;28;20087;-64
2021/06/16 05:18:59;;;;;;;5.45;2.28;;;;;;;27.22;40.61;96668.47;5021796;28;20072;-66
2021/06/16 05:21:24;;;;;;;5.13;2.63;;;;;;;26.72;41.14;96671.72;5017668;28;20068;-65
2021/06/16 05:23:50;;;;;;;5.05;2.30;;;;;;;27.52;40.04;96677.06;5024200;28;20486;-67
2021/06/16 05:26:16;;;;;;;4.70;2.55;;;;;;;28.32;38.06;96672.38;5018689;28;20050;-64
2021/06/16 05:28:42;;;;;;;4.07;2.25;;;;;;;27.63;39.57;96672.41;5024526;28;20573;-65
2021/06/16 05:31:09;;;;;;;8.57;2.25;;;;;;;28.89;35.98;96673.28;5018327;28;20073;-65
2021/06/16 05:33:36;;;;;;;4.05;2.13;;;;;;;29.67;34.87;96664.28;5025400;28;20049;-66
2021/06/16 05:36:02;;;;;;;6.10;2.10;;;;;;;29.22;35.41;96667.34;5037823;22;20068;-66
2021/06/16 05:38:28;;;;;;;3.42;1.83;;;;;;;30.09;33.29;96668.59;4988092;28;20048;-66
2021/06/16 05:40:53;;;;;;;6.88;2.25;;;;;;;29.46;35.10;96677.63;5008892;28;20038;-65
2021/06/16 05:43:19;;;;;;;4.78;2.00;;;;;;;30.53;34.23;96669.53;4996953;28;20062;-66
2021/06/16 05:45:44;;;;;;;3.78;1.73;;;;;;;30.31;33.61;96668.78;5002998;28;20046;-66
2021/06/16 05:48:10;;;;;;;4.85;2.35;;;;;;;30.98;32.81;96664.19;4996345;28;20033;-66
2021/06/16 05:50:35;;;;;;;3.95;1.73;;;;;;;30.73;32.84;96671.47;4984419;28;20520;-66
2021/06/16 05:53:00;;;;;;;3.67;2.00;;;;;;;31.78;30.58;96675.38;5000970;28;20133;-66
2021/06/16 05:55:26;;;;;;;4.95;1.88;;;;;;;31.51;31.63;96671.16;4997408;28;20418;-66
2021/06/16 05:57:51;;;;;;;5.63;2.25;;;;;;;28.94;35.11;96678.22;5002105;28;20107;-66
2021/06/16 06:00:17;;;;;;;7.05;2.08;;;;;;;29.83;33.55;96675.00;4993133;28;20779;-66
2021/06/16 06:02:43;;;;;;;4.07;2.00;;;;;;;29.59;33.77;96680.13;5001145;28;20093;-65
2021/06/16 06:05:09;;;;;;;5.43;1.95;;;;;;;27.52;37.38;96672.19;4996291;28;20042;-65
2021/06/16 06:07:34;;;;;;;6.47;2.08;;;;;;;27.55;38.38;96678.88;4997280;28;20073;-65
2021/06/16 06:09:59;;;;;;;5.80;2.10;;;;;;;26.07;42.16;96680.38;4998559;28;20498;-65
2021/06/16 06:12:25;;;;;;;4.97;2.25;;;;;;;24.45;46.30;96683.50;4996421;28;20341;-64
2021/06/16 06:14:50;;;;;;;3.97;2.00;;;;;;;25.48;45.69;96669.34;5021894;28;20045;-65
2021/06/16 06:17:16;;;;;;;6.70;2.50;;;;;;;25.34;44.96;96676.34;5013741;28;20479;-65
2021/06/16 06:19:41;;;;;;;3.80;2.10;;;;;;;26.03;41.19;96674.13;4983333;28;20077;-65
2021/06/16 06:22:07;;;;;;;3.15;1.83;;;;;;;27.73;37.70;96670.31;4976853;28;20062;-65
2021/06/16 06:24:33;;;;;;;4.93;2.13;;;;;;;28.69;35.81;96676.84;4999234;28;20046;-65
2021/06/16 06:26:58;;;;;;;5.10;2.30;;;;;;;25.65;42.25;96672.59;4999542;28;20030;-65
2021/06/16 06:29:26;;;;;;;7.28;2.30;;;;;;;27.92;38.33;96672.97;4994233;28;20530;-65
2021/06/16 06:31:51;;;;;;;9.23;2.55;;;;;;;28.69;36.85;96668.38;4997004;28;20136;-64
2021/06/16 06:34:17;;;;;;;4.60;2.70;;;;;;;26.39;40.59;96672.47;4995709;28;20077;-64
2021/06/16 06:36:42;;;;;;;6.38;2.10;;;;;;;26.73;41.01;96667.69;5000934;28;20038;-64
2021/06/16 06:39:08;;;;;;;6.63;2.30;;;;;;;26.49;41.33;96668.38;4996200;28;20044;-65
2021/06/16 06:41:33;;;;;;;7.88;2.15;;;;;;;27.22;40.74;96677.69;5000560;28;20156;-64
2021/06/16 06:43:59;;;;;;;5.25;2.28;;;;;;;25.53;43.08;96667.91;4999200;28;20041;-64
2021/06/16 06:46:24;;;;;;;4.72;2.00;;;;;;;25.71;43.13;96667.94;4995312;28;20046;-64
2021/06/16 06:48:49;;;;;;;6.63;2.60;;;;;;;25.38;42.45;96664.97;4999902;28;20046;-64
2021/06/16 06:51:15;;;;;;;5.03;2.55;;;;;;;24.80;44.82;96661.75;4995987;28;20050;-65
2021/06/16 06:53:40;;;;;;;6.75;2.92;;;;;;;24.76;44.36;96658.31;5004083;28;20034;-64
2021/06/16 06:56:06;;;;;;;6.55;2.63;;;;;;;25.60;41.89;96658.44;5008796;28;20129;-64
2021/06/16 06:58:31;;;;;;;4.43;2.58;;;;;;;24.83;44.79;96656.44;5000981;28;20513;-64
2021/06/16 07:00:57;;;;;;;7.70;2.38;;;;;;;25.76;42.87;96644.84;4999963;28;20118;-64
2021/06/16 07:03:22;;;;;;;5.07;2.22;;;;;;;27.92;38.54;96656.09;4994540;28;20166;-64
2021/06/16 07:05:48;;;;;;;5.70;2.47;;;;;;;27.52;38.53;96646.88;5001085;28;20454;-64
2021/06/16 07:08:13;;;;;;;6.72;2.92;;;;;;;28.95;35.11;96651.56;4994766;28;20070;-65
2021/06/16 07:10:39;;;;;;;3.55;1.80;;;;;;;30.10;33.40;96639.84;4999849;28;20099;-65
2021/06/16 07:13:04;;;;;;;13.07;2.80;;;;;;;31.67;30.71;96641.34;4995866;28;20042;-65
2021/06/16 07:15:31;;;;;;;5.15;2.47;;;;;;;30.46;31.47;96636.84;4999543;28;20135;-65
2021/06/16 07:17:57;;;;;;;4.93;2.38;;;;;;;30.21;32.25;96639.16;4999778;28;20048;-65
2021/06/16 07:20:23;;;;;;;5.05;2.15;;;;;;;27.35;38.44;96642.94;4991601;28;20081;-64
2021/06/16 07:22:48;;;;;;;7.55;2.40;;;;;;;28.53;35.73;96645.09;4999754;28;20128;-65
2021/06/16 07:25:16;;;;;;;4.38;2.70;;;;;;;29.03;34.98;96640.66;4995272;28;20100;-65
2021/06/16 07:27:43;;;;;;;3.95;1.90;;;;;;;30.28;33.76;96635.13;5001224;28;20052;-65
2021/06/16 07:30:09;;;;;;;4.78;2.42;;;;;;;31.78;30.94;96641.38;4994813;28;20058;-65
2021/06/16 07:32:35;;;;;;;6.32;2.33;;;;;;;32.05;30.10;96644.78;4999952;28;20041;-66
2021/06/16 07:35:00;;;;;;;6.28;2.25;;;;;;;32.29;29.54;96637.88;4988610;28;20042;-65
2021/06/16 07:37:27;;;;;;;5.35;2.20;;;;;;;32.83;29.06;96642.47;4991429;28;20752;-65
2021/06/16 07:39:54;;;;;;;4.80;2.60;;;;;;;30.94;31.83;96635.38;5000172;28;20041;-65
2021/06/16 07:42:19;;;;;;;7.00;2.58;;;;;;;30.23;33.14;96638.66;4994948;28;20045;-65
2021/06/16 07:44:45;;;;;;;9.07;4.93;;;;;;;32.17;31.41;96635.00;4982400;28;20034;-64
2021/06/16 07:47:10;;;;;;;6.85;3.42;;;;;;;32.30;30.84;96628.06;4994059;28;20065;-66
2021/06/16 07:49:36;;;;;;;7.40;3.20;;;;;;;32.53;30.76;96635.25;4999506;28;20054;-66
2021/06/16 07:52:01;;;;;;;3.55;1.70;;;;;;;33.33;29.89;96638.72;4998404;28;20038;-65
2021/06/16 07:54:27;;;;;;;6.10;2.67;;;;;;;32.98;29.94;96640.13;4994775;28;20045;-65
2021/06/16 07:56:52;;;;;;;5.68;2.03;;;;;;;31.49;32.11;96645.41;4999589;28;20116;-64
2021/06/16 07:59:17;;;;;;;6.50;2.20;;;;;;;30.34;34.60;96633.13;4994016;28;20149;-65
2021/06/16 08:01:43;;;;;;;7.90;2.20;;;;;;;30.89;33.84;96628.38;4990359;28;20495;-64
2021/06/16 08:04:09;;;;;;;8.30;2.55;;;;;;;31.36;33.31;96619.63;4992604;28;20050;-65
2021/06/16 08:06:35;;;;;;;6.82;2.80;;;;;;;28.56;37.69;96627.22;4996177;28;20108;-64
2021/06/16 08:09:00;;;;;;;7.03;2.40;;;;;;;26.27;43.29;96620.91;4995349;28;20053;-64
2021/06/16 08:11:26;;;;;;;3.90;2.38;;;;;;;26.73;42.51;96616.34;4990508;28;20398;-64
2021/06/16 08:13:51;;;;;;;10.70;2.70;;;;;;;25.61;44.88;96615.13;4999496;28;20042;-64
2021/06/16 08:16:18;;;;;;;3.53;2.33;;;;;;;26.66;43.35;96623.84;4996734;28;20470;-64
2021/06/16 08:18:47;;;;;;;7.82;2.78;;;;;;;26.15;43.43;96621.88;5003485;28;20034;-65
2021/06/16 08:21:14;;;;;;;7.65;2.95;;;;;;;26.92;42.10;96612.16;4997154;28;20129;-63
2021/06/16 08:23:41;;;;;;;5.63;2.30;;;;;;;28.11;40.32;96611.59;5003610;28;20041;-64
2021/06/16 08:26:06;;;;;;;6.55;2.17;;;;;;;29.19;37.85;96611.94;4981610;28;20092;-64
2021/06/16 08:28:32;;;;;;;3.85;2.00;;;;;;;30.20;35.39;96591.69;5003410;28;20058;-64
2021/06/16 08:30:57;;;;;;;6.40;2.30;;;;;;;29.42;37.52;96604.50;5001645;28;20050;-63
2021/06/16 08:33:23;;;;;;;6.82;2.55;;;;;;;28.68;37.74;96608.41;4998694;28;20046;-63
2021/06/16 08:35:48;;;;;;;4.20;2.08;;;;;;;29.91;36.55;96602.72;5003326;28;20034;-64
2021/06/16 08:38:13;;;;;;;8.93;2.42;;;;;;;30.67;35.03;96607.19;4998845;28;20482;-64
2021/06/16 08:40:39;;;;;;;6.93;2.30;;;;;;;27.64;38.23;96606.44;5006004;28;20132;-64
2021/06/16 08:43:05;;;;;;;3.92;2.28;;;;;;;29.38;36.16;96611.66;4981657;28;20132;-65
2021/06/16 08:45:37;;;;;;;5.47;2.33;;;;;;;27.75;39.25;96610.72;5003424;28;20499;-65
2021/06/16 08:48:03;;;;;;;6.13;2.33;;;;;;;29.19;37.09;96608.34;4990280;28;20096;-62
2021/06/16 08:50:29;;;;;;;6.55;2.90;;;;;;;30.40;34.76;96605.72;5000772;28;20057;-65
2021/06/16 08:52:54;;;;;;;6.10;2.55;;;;;;;30.79;34.32;96601.59;5003118;28;20049;-63
2021/06/16 08:55:20;;;;;;;5.03;2.20;;;;;;;29.67;34.93;96602.97;4994441;28;20048;-64
2021/06/16 08:57:47;;;;;;;3.47;1.85;;;;;;;28.67;37.39;96606.88;4996898;28;20046;-63
2021/06/16 09:00:14;;;;;;;5.45;2.33;;;;;;;28.76;36.99;96601.13;4995760;28;20101;-65
2021/06/16 09:02:40;;;;;;;7.00;2.50;;;;;;;28.94;36.44;96610.56;4997260;28;20084;-65
2021/06/16 09:05:06;;;;;;;8.63;2.75;;;;;;;28.20;37.90;96601.03;4983168;28;20051;-65
2021/06/16 09:07:33;;;;;;;5.82;2.20;;;;;;;27.69;39.34;96601.41;4985369;28;20047;-65
2021/06/16 09:10:10;;;;;;;7.97;2.17;;;;;;;27.76;39.69;96596.16;4993472;28;20146;-65
2021/06/16 09:12:42;;;;;;;7.90;2.42;;;;;;;27.29;38.86;96597.09;4992170;28;20052;-64
2021/06/16 09:15:31;;;;;;;7.18;2.50;;;;;;;28.19;39.09;96602.28;4989701;28;20050;-65
2021/06/16 09:18:08;;;;;;;5.32;2.63;;;;;;;28.30;38.86;96590.41;4994548;28;20508;-65
2021/06/16 09:20:40;;;;;;;4.43;2.38;;;;;;;29.15;37.45;96586.00;4989626;28;20040;-65
2021/06/16 09:23:25;;;;;;;8.90;2.22;;;;;;;30.51;36.26;96590.13;4987491;28;20068;-66
2021/06/16 09:26:08;;;;;;;7.45;2.63;;;;;;;31.26;36.34;96585.13;4991957;28;20046;-66
2021/06/16 09:28:43;;;;;;;5.70;2.70;;;;;;;30.94;36.23;96588.06;4988025;28;20038;-64
2021/06/16 09:31:10;;;;;;;6.85;2.60;;;;;;;30.93;35.97;96583.69;4990372;28;20084;-65
2021/06/16 09:33:37;;;;;;;4.28;2.70;;;;;;;31.03;36.77;96585.03;4997804;28;20042;-64
2021/06/16 09:36:10;;;;;;;5.60;2.72;;;;;;;30.85;36.85;96579.78;4990584;28;20639;-65
2021/06/16 09:38:36;;;;;;;6.60;2.97;;;;;;;30.69;36.90;96581.25;4991155;28;20053;-65
2021/06/16 09:41:02;;;;;;;4.63;2.35;;;;;;;30.89;37.32;96583.13;4993869;28;20042;-65
2021/06/16 09:43:29;;;;;;;7.47;2.53;;;;;;;30.47;37.10;96585.47;4992892;28;20061;-65
2021/06/16 09:46:01;;;;;;;6.43;2.20;;;;;;;30.96;36.06;96577.03;4998034;28;20747;-64
2021/06/16 09:48:30;;;;;;;5.53;2.25;;;;;;;30.81;34.21;96588.50;4990416;28;20061;-65
2021/06/16 09:51:33;;;;;;;10.52;2.40;;;;;;;31.20;34.90;96581.50;4992551;28;20133;-65
2021/06/16 09:54:15;;;;;;;6.13;2.22;;;;;;;29.81;38.41;96578.00;4994758;28;20046;-65
2021/06/16 09:56:43;;;;;;;8.25;2.38;;;;;;;30.62;38.35;96579.66;5000192;28;20041;-64
2021/06/16 09:59:10;;;;;;;9.27;2.78;;;;;;;30.61;35.99;96574.50;4979741;28;20054;-63
2021/06/16 10:01:46;;;;;;;4.68;2.72;;;;;;;31.13;34.46;96577.09;4995006;28;20080;-63
2021/06/16 10:04:30;;;;;;;5.20;2.70;;;;;;;30.50;38.35;96580.84;4982995;28;20203;-63
2021/06/16 10:07:28;;;;;;;6.47;2.80;;;;;;;30.44;38.88;96580.06;4993682;28;20041;-63
2021/06/16 10:09:55;;;;;;;5.05;2.28;;;;;;;31.13;37.74;96567.84;4995403;28;20089;-63
2021/06/16 10:12:23;;;;;;;5.13;2.40;;;;;;;31.06;37.37;96571.91;4978233;28;20471;-64
2021/06/16 10:14:49;;;;;;;6.60;2.20;;;;;;;30.93;37.17;96563.91;4996659;28;20046;-64
2021/06/16 10:17:15;;;;;;;8.35;2.45;;;;;;;30.99;36.67;96561.09;4981723;28;20042;-65
2021/06/16 10:19:43;;;;;;;9.45;2.35;;;;;;;31.08;37.31;96568.59;4987385;28;20046;-62
2021/06/16 10:22:10;;;;;;;5.63;2.60;;;;;;;31.04;38.25;96558.31;4986720;28;20168;-66
2021/06/16 10:24:36;;;;;;;8.32;2.75;;;;;;;30.81;38.07;96557.41;4991723;28;20049;-65
2021/06/16 10:27:04;;;;;;;6.55;2.30;;;;;;;30.59;38.24;96555.22;4990784;28;20049;-66
2021/06/16 10:29:35;;;;;;;3.30;2.30;;;;;;;30.40;38.35;96554.88;4996305;28;20577;-65
2021/06/16 10:32:03;;;;;;;6.32;2.63;;;;;;;30.32;37.65;96548.09;4995916;28;20057;-65
2021/06/16 10:34:52;;;;;;;7.00;2.40;;;;;;;30.09;39.74;96555.66;4978136;28;20053;-64
2021/06/16 10:37:44;;;;;;;6.47;2.77;;;;;;;30.30;40.31;96548.59;4976260;28;20045;-65
2021/06/16 10:40:13;;;;;;;5.13;2.40;;;;;;;30.87;32.72;96534.81;4991467;28;20058;-65
2021/06/16 10:43:04;;;;;;;5.37;2.40;;;;;;;31.02;36.73;96540.28;4995605;28;20437;-65
2021/06/16 10:45:33;;;;;;;6.50;2.30;;;;;;;31.10;36.00;96535.69;4986994;28;20295;-65
2021/06/16 10:48:03;;;;;;;4.35;2.50;;;;;;;30.34;37.43;96531.44;4987748;28;20046;-64
2021/06/16 10:50:51;;;;;;;6.38;2.13;;;;;;;30.62;35.73;96531.59;4992579;28;20046;-64
2021/06/16 10:53:21;;;;;;;4.97;1.60;;;;;;;29.65;30.21;96526.50;4975753;28;20336;-63
2021/06/16 10:55:53;;;;;;;3.80;1.45;;;;;;;30.38;30.31;96528.38;4989022;28;20064;-63
2021/06/16 10:58:25;;;;;;;2.75;1.45;;;;;;;30.37;29.62;96529.66;4986701;28;20503;-63
2021/06/16 11:01:22;;;;;;;3.45;1.50;;;;;;;30.64;32.25;96525.44;4989831;28;20053;-65
2021/06/16 11:03:51;;;;;;;3.05;1.50;;;;;;;30.34;31.86;96522.97;4982864;28;20045;-66
2021/06/16 11:06:37;;;;;;;5.18;1.80;;;;;;;30.30;32.93;96528.06;4993933;28;20046;-64
2021/06/16 11:09:06;;;;;;;9.73;5.05;;;;;;;30.65;30.80;96522.13;4998315;28;20050;-64
2021/06/16 11:11:49;;;;;;;2.30;1.63;;;;;;;30.29;31.53;96520.88;4997726;28;20081;-65
2021/06/16 11:14:33;;;;;;;3.20;1.75;;;;;;;29.38;31.08;96516.50;4995225;28;20045;-65
2021/06/16 11:17:27;;;;;;;3.03;1.70;;;;;;;29.47;31.50;96521.22;4999891;28;20053;-63
2021/06/16 11:20:19;;;;;;;4.65;1.60;;;;;;;30.78;29.30;96509.59;5016464;28;20429;-64
2021/06/16 11:22:49;;;;;;;5.20;1.58;;;;;;;31.37;28.80;96510.81;5000801;28;20052;-64
2021/06/16 11:25:18;;;;;;;4.63;1.88;;;;;;;31.12;29.40;96512.56;4995379;28;20045;-64
2021/06/16 11:27:52;;;;;;;2.67;1.43;;;;;;;31.29;29.67;96509.75;5001022;28;20046;-64
2021/06/16 11:30:46;;;;;;;2.65;1.95;;;;;;;29.89;30.90;96509.31;4995007;28;20549;-64
2021/06/16 11:33:11;;;;;;;3.97;1.48;;;;;;;30.88;29.37;96508.06;4988436;28;20083;-66
2021/06/16 11:35:38;;;;;;;4.10;2.13;;;;;;;30.84;32.68;96497.00;4999972;28;20394;-65
2021/06/16 11:38:04;;;;;;;3.85;1.80;;;;;;;31.02;34.16;96504.28;4999239;28;20328;-67
2021/06/16 11:40:31;;;;;;;2.97;1.75;;;;;;;31.22;30.60;96500.50;5003399;28;20638;-65